createdAt,value
2023-05-04T00:00:10.816Z,2.83
2023-05-04T00:02:38.714Z,3.03
2023-05-04T00:05:06.462Z,2.51
2023-05-04T00:07:33.637Z,2.13
2023-05-04T00:10:01.393Z,1.63
2023-05-04T00:12:28.627Z,2.08
2023-05-04T00:14:55.692Z,2.34
2023-05-04T00:17:22.523Z,1.92
2023-05-04T00:19:49.456Z,2.11
2023-05-04T00:22:16.984Z,1.66
2023-05-04T00:24:46.553Z,1.64
2023-05-04T00:27:13.285Z,0.44
2023-05-04T00:29:40.343Z,0.88
2023-05-04T00:32:07.243Z,0.73
2023-05-04T00:34:34.387Z,-0.04
2023-05-04T00:37:01.547Z,-0.03
2023-05-04T00:39:28.461Z,1.52
2023-05-04T00:41:56.361Z,0.27
2023-05-04T00:44:26.369Z,0.33
2023-05-04T00:46:53.937Z,0.41
2023-05-04T00:49:21.720Z,0.81
2023-05-04T00:51:50.410Z,1.26
2023-05-04T00:54:20.605Z,1.17
2023-05-04T00:56:47.990Z,0.85
2023-05-04T00:59:14.860Z,1.01
2023-05-04T01:01:42.417Z,0.65
2023-05-04T01:04:09.469Z,1.26
2023-05-04T01:06:36.308Z,0.37
2023-05-04T01:09:22.399Z,0.33
2023-05-04T01:12:00.955Z,0.66
2023-05-04T01:14:28.771Z,0.74
2023-05-04T01:16:58.911Z,0.72
2023-05-04T01:19:28.169Z,-0.05
2023-05-04T01:21:56.690Z,0.33
2023-05-04T01:24:25.595Z,0.94
2023-05-04T01:27:05.833Z,-1.06
2023-05-04T01:29:43.412Z,0.11
2023-05-04T01:32:14.230Z,0.89
2023-05-04T01:34:41.774Z,0.18
2023-05-04T01:37:09.101Z,0.50
2023-05-04T01:39:36.273Z,0.45
2023-05-04T01:42:03.144Z,-0.25
2023-05-04T01:44:29.941Z,-0.01
2023-05-04T01:46:57.004Z,0.13
2023-05-04T01:49:23.757Z,0.10
2023-05-04T01:51:50.972Z,-0.20
2023-05-04T01:54:17.754Z,0.11
2023-05-04T01:56:44.547Z,1.27
2023-05-04T01:59:12.257Z,0.92
2023-05-04T02:01:40.192Z,0.20
2023-05-04T02:04:07.117Z,0.66
2023-05-04T02:06:34.106Z,-0.42
2023-05-04T02:09:01.007Z,0.46
2023-05-04T02:11:27.979Z,0.09
2023-05-04T02:13:54.963Z,1.45
2023-05-04T02:16:21.888Z,0.36
2023-05-04T02:18:48.739Z,-0.25
2023-05-04T02:21:15.869Z,0.18
2023-05-04T02:23:43.994Z,0.02
2023-05-04T02:26:11.639Z,-1.08
2023-05-04T02:28:38.420Z,-0.53
2023-05-04T02:31:05.272Z,0.09
2023-05-04T02:33:32.036Z,0.20
2023-05-04T02:35:58.784Z,0.03
2023-05-04T02:38:26.414Z,0.05
2023-05-04T02:40:53.135Z,-1.36
2023-05-04T02:43:20.210Z,-0.44
2023-05-04T02:45:47.112Z,-0.58
2023-05-04T02:48:13.824Z,-0.37
2023-05-04T02:50:40.976Z,-0.12
2023-05-04T02:53:07.682Z,-0.21
2023-05-04T02:55:34.702Z,-0.73
2023-05-04T02:58:02.051Z,-1.51
2023-05-04T03:00:28.818Z,-0.07
2023-05-04T03:02:55.607Z,-0.67
2023-05-04T03:05:22.550Z,-1.08
2023-05-04T03:07:50.874Z,-0.89
2023-05-04T03:10:17.614Z,-0.74
2023-05-04T03:12:45.281Z,-1.61
2023-05-04T03:15:12.397Z,-1.10
2023-05-04T03:17:39.433Z,-1.38
2023-05-04T03:20:08.073Z,-0.37
2023-05-04T03:22:35.526Z,-0.35
2023-05-04T03:25:02.669Z,-0.73
2023-05-04T03:27:29.917Z,-1.73
2023-05-04T03:29:57.004Z,-3.12
2023-05-04T03:32:24.928Z,-1.63
2023-05-04T03:34:52.308Z,-2.19
2023-05-04T03:37:21.276Z,-0.77
2023-05-04T03:39:48.498Z,-1.21
2023-05-04T03:42:15.276Z,-1.88
2023-05-04T03:44:42.029Z,-1.44
2023-05-04T03:47:09.270Z,-2.18
2023-05-04T03:49:35.953Z,-0.72
2023-05-04T03:52:02.762Z,-1.50
2023-05-04T03:54:29.520Z,-1.88
2023-05-04T03:56:56.562Z,-1.10
2023-05-04T03:59:23.899Z,-1.57
2023-05-04T04:01:52.464Z,-0.71
2023-05-04T04:04:19.277Z,-0.71
2023-05-04T04:06:46.604Z,-0.88
2023-05-04T04:09:13.637Z,-1.80
2023-05-04T04:11:40.798Z,-1.22
2023-05-04T04:14:07.677Z,-0.80
2023-05-04T04:16:34.523Z,-1.38
2023-05-04T04:19:02.149Z,-1.11
2023-05-04T04:21:29.303Z,-0.49
2023-05-04T04:23:56.152Z,-0.64
2023-05-04T04:26:22.897Z,0.75
2023-05-04T04:28:51.445Z,0.48
2023-05-04T04:31:19.360Z,0.30
2023-05-04T04:33:47.978Z,-0.47
2023-05-04T04:36:16.842Z,0.44
2023-05-04T04:38:44.270Z,0.52
2023-05-04T04:41:12.060Z,1.13
2023-05-04T04:43:39.179Z,0.23
2023-05-04T04:46:05.887Z,0.67
2023-05-04T04:48:33.089Z,0.42
2023-05-04T04:50:59.905Z,0.93
2023-05-04T04:53:26.666Z,2.01
2023-05-04T04:55:54.134Z,1.01
2023-05-04T04:58:21.081Z,2.29
2023-05-04T05:00:48.245Z,2.66
2023-05-04T05:03:15.049Z,1.84
2023-05-04T05:05:42.308Z,1.24
2023-05-04T05:08:09.196Z,1.77
2023-05-04T05:10:36.156Z,3.51
2023-05-04T05:13:03.352Z,4.13
2023-05-04T05:15:30.243Z,2.72
2023-05-04T05:17:57.069Z,2.55
2023-05-04T05:20:24.068Z,3.34
2023-05-04T05:22:51.903Z,4.00
2023-05-04T05:25:19.499Z,2.71
2023-05-04T05:27:46.353Z,4.50
2023-05-04T05:30:14.116Z,4.79
2023-05-04T05:32:40.864Z,2.34
2023-05-04T05:35:09.440Z,4.18
2023-05-04T05:37:36.315Z,4.76
2023-05-04T05:40:07.156Z,5.06
2023-05-04T05:42:34.067Z,4.13
2023-05-04T05:45:01.970Z,3.45
2023-05-04T05:47:28.704Z,3.53
2023-05-04T05:49:55.619Z,4.65
2023-05-04T05:52:22.377Z,3.35
2023-05-04T05:54:49.050Z,5.89
2023-05-04T05:57:15.798Z,6.66
2023-05-04T05:59:44.792Z,4.64
2023-05-04T06:02:14.895Z,4.98
2023-05-04T06:04:43.112Z,3.38
2023-05-04T06:07:10.114Z,4.54
2023-05-04T06:09:37.372Z,6.42
2023-05-04T06:12:06.484Z,6.87
2023-05-04T06:14:33.837Z,6.66
2023-05-04T06:17:00.546Z,6.69
2023-05-04T06:19:28.498Z,3.95
2023-05-04T06:21:56.258Z,3.58
2023-05-04T06:24:23.632Z,6.43
2023-05-04T06:26:50.603Z,6.58
2023-05-04T06:29:17.471Z,5.96
2023-05-04T06:31:48.067Z,5.32
2023-05-04T06:34:19.111Z,7.30
2023-05-04T06:36:45.867Z,7.10
2023-05-04T06:39:13.152Z,8.21
2023-05-04T06:41:39.808Z,5.96
2023-05-04T06:44:08.963Z,5.19
2023-05-04T06:46:37.685Z,6.32
2023-05-04T06:49:05.208Z,6.78
2023-05-04T06:51:32.458Z,7.39
2023-05-04T06:54:01.048Z,8.17
2023-05-04T06:56:27.781Z,7.62
2023-05-04T06:58:54.495Z,6.95
2023-05-04T07:01:21.469Z,7.46
2023-05-04T07:03:48.300Z,9.19
2023-05-04T07:06:15.347Z,8.40
2023-05-04T07:08:42.468Z,10.08
2023-05-04T07:11:10.416Z,9.22
2023-05-04T07:13:39.028Z,7.97
2023-05-04T07:16:09.397Z,8.78
2023-05-04T07:18:36.409Z,8.91
2023-05-04T07:21:22.001Z,8.12
2023-05-04T07:24:15.650Z,8.97
2023-05-04T07:26:42.700Z,8.88
2023-05-04T07:29:09.705Z,9.44
2023-05-04T07:44:14.232Z,9.74
2023-05-04T07:46:41.378Z,10.07
2023-05-04T07:49:08.636Z,8.75
2023-05-04T07:51:35.567Z,10.86
2023-05-04T07:54:02.340Z,11.53
2023-05-04T07:56:29.626Z,10.25
2023-05-04T07:58:56.679Z,10.64
2023-05-04T08:01:24.722Z,11.54
2023-05-04T08:03:51.516Z,11.33
2023-05-04T08:06:18.239Z,10.17
2023-05-04T08:08:45.822Z,10.58
2023-05-04T08:11:20.725Z,9.79
2023-05-04T08:13:49.751Z,10.88
2023-05-04T08:16:17.144Z,11.41
2023-05-04T08:18:44.241Z,12.76
2023-05-04T08:21:11.871Z,11.42
2023-05-04T08:23:38.843Z,11.92
2023-05-04T08:26:05.699Z,11.67
2023-05-04T08:28:37.814Z,12.73
2023-05-04T08:31:04.677Z,12.39
2023-05-04T08:33:32.063Z,12.34
2023-05-04T08:35:58.996Z,10.19
2023-05-04T08:38:26.182Z,11.11
2023-05-04T08:40:54.149Z,12.07
2023-05-04T08:43:21.418Z,13.77
2023-05-04T08:45:49.701Z,12.68
2023-05-04T08:48:16.879Z,12.95
2023-05-04T08:50:44.930Z,10.78
2023-05-04T08:53:13.833Z,11.30
2023-05-04T08:55:43.784Z,11.87
2023-05-04T08:58:13.070Z,13.98
2023-05-04T09:00:43.908Z,11.88
2023-05-04T09:03:11.351Z,13.33
2023-05-04T09:05:39.284Z,13.72
2023-05-04T09:08:06.981Z,14.33
2023-05-04T09:10:34.052Z,13.50
2023-05-04T09:13:01.546Z,13.51
2023-05-04T09:15:28.323Z,13.01
2023-05-04T09:18:01.852Z,12.93
2023-05-04T09:20:30.897Z,13.23
2023-05-04T09:23:07.261Z,16.05
2023-05-04T09:25:55.488Z,14.63
2023-05-04T09:28:43.400Z,15.35
2023-05-04T09:31:12.025Z,14.23
2023-05-04T09:33:38.838Z,16.23
2023-05-04T09:36:18.106Z,17.06
2023-05-04T09:38:45.720Z,13.58
2023-05-04T09:41:12.844Z,17.29
2023-05-04T09:43:41.854Z,18.17
2023-05-04T09:46:17.581Z,16.22
2023-05-04T09:48:52.710Z,18.72
2023-05-04T09:51:22.567Z,19.15
2023-05-04T09:53:51.242Z,20.85
2023-05-04T09:56:31.245Z,18.83
2023-05-04T09:58:58.859Z,19.97
2023-05-04T10:01:29.644Z,19.90
2023-05-04T10:03:56.894Z,20.85
2023-05-04T10:06:24.861Z,23.48
2023-05-04T10:08:52.278Z,19.18
2023-05-04T10:11:20.398Z,20.28
2023-05-04T10:13:49.254Z,20.07
2023-05-04T10:16:26.602Z,19.10
2023-05-04T10:19:17.973Z,20.84
2023-05-04T10:22:08.382Z,18.49
2023-05-04T10:25:08.397Z,21.99
2023-05-04T10:27:47.627Z,20.71
2023-05-04T10:30:17.377Z,20.57
2023-05-04T10:32:44.720Z,18.57
2023-05-04T10:35:11.803Z,19.27
2023-05-04T10:37:38.884Z,21.68
2023-05-04T10:40:07.762Z,18.85
2023-05-04T10:42:44.852Z,18.63
2023-05-04T10:45:13.115Z,19.48
2023-05-04T10:47:41.656Z,22.15
2023-05-04T10:50:11.353Z,22.15
2023-05-04T10:52:52.140Z,23.54
2023-05-04T10:55:23.080Z,21.22
2023-05-04T10:57:52.337Z,20.53
2023-05-04T11:00:20.009Z,22.23
2023-05-04T11:02:49.059Z,19.79
2023-05-04T11:05:20.845Z,21.65
2023-05-04T11:07:53.292Z,23.40
2023-05-04T11:10:25.864Z,20.69
2023-05-04T11:13:05.558Z,22.30
2023-05-04T11:15:47.386Z,22.38
2023-05-04T11:18:15.075Z,23.22
2023-05-04T11:20:42.955Z,20.62
2023-05-04T11:23:10.650Z,24.10
2023-05-04T11:25:38.437Z,22.32
2023-05-04T11:28:05.275Z,24.66
2023-05-04T11:30:33.961Z,24.19
2023-05-04T11:33:02.344Z,23.23
2023-05-04T11:35:29.229Z,20.86
2023-05-04T11:37:56.944Z,23.03
2023-05-04T11:40:27.076Z,25.02
2023-05-04T11:42:57.151Z,21.92
2023-05-04T11:45:24.308Z,23.61
2023-05-04T11:47:53.648Z,24.19
2023-05-04T11:50:21.229Z,21.34
2023-05-04T11:52:48.741Z,23.15
2023-05-04T11:55:30.617Z,22.45
2023-05-04T11:58:02.507Z,21.45
2023-05-04T12:00:37.659Z,20.59
2023-05-04T12:03:08.457Z,20.72
2023-05-04T12:05:36.824Z,21.53
2023-05-04T12:08:04.569Z,21.99
2023-05-04T12:10:35.373Z,21.26
2023-05-04T12:13:02.819Z,22.54
2023-05-04T12:15:29.957Z,19.59
2023-05-04T12:17:57.398Z,17.79
2023-05-04T12:20:28.234Z,21.09
2023-05-04T12:22:56.541Z,21.12
2023-05-04T12:25:24.672Z,21.65
2023-05-04T12:27:51.760Z,22.48
2023-05-04T12:30:18.891Z,19.99
2023-05-04T12:32:46.154Z,20.82
2023-05-04T12:35:13.119Z,20.22
2023-05-04T12:37:39.883Z,19.49
2023-05-04T12:40:21.095Z,19.03
2023-05-04T12:42:54.818Z,19.90
2023-05-04T12:45:22.822Z,20.85
2023-05-04T12:47:49.668Z,16.37
2023-05-04T12:50:16.470Z,18.04
2023-05-04T12:52:43.490Z,20.34
2023-05-04T12:55:10.444Z,18.37
2023-05-04T12:57:38.054Z,19.97
2023-05-04T13:00:08.634Z,20.96
2023-05-04T13:02:35.448Z,18.41
2023-05-04T13:05:02.977Z,20.84
2023-05-04T13:07:30.355Z,20.90
2023-05-04T13:09:57.268Z,20.85
2023-05-04T13:12:24.434Z,19.90
2023-05-04T13:14:55.336Z,18.44
2023-05-04T13:17:22.290Z,19.57
2023-05-04T13:19:49.346Z,21.88
2023-05-04T13:22:16.592Z,19.51
2023-05-04T13:24:43.587Z,20.45
2023-05-04T13:27:10.437Z,21.34
2023-05-04T13:29:37.139Z,19.60
2023-05-04T13:32:04.164Z,21.74
2023-05-04T13:34:30.912Z,19.88
2023-05-04T13:36:57.686Z,19.39
2023-05-04T13:39:25.572Z,21.96
2023-05-04T13:41:52.402Z,20.39
2023-05-04T13:44:19.570Z,19.91
2023-05-04T13:46:46.304Z,18.11
2023-05-04T13:49:13.713Z,20.66
2023-05-04T13:51:40.439Z,20.74
2023-05-04T13:54:07.361Z,19.65
2023-05-04T13:56:34.503Z,21.53
2023-05-04T13:59:01.312Z,20.44
2023-05-04T14:01:28.911Z,20.21
2023-05-04T14:03:55.710Z,21.79
2023-05-04T14:06:22.740Z,19.52
2023-05-04T14:08:49.849Z,19.82
2023-05-04T14:11:16.576Z,19.67
2023-05-04T14:13:43.989Z,20.94
2023-05-04T14:16:11.113Z,19.24
2023-05-04T14:18:37.870Z,19.85
2023-05-04T14:21:05.950Z,18.62
2023-05-04T14:23:33.121Z,18.92
2023-05-04T14:25:59.903Z,18.27
2023-05-04T14:28:26.873Z,19.11
2023-05-04T14:30:53.628Z,18.75
2023-05-04T14:33:20.979Z,19.79
2023-05-04T14:35:48.337Z,20.20
2023-05-04T14:38:16.083Z,19.04
2023-05-04T14:40:42.987Z,18.73
2023-05-04T14:43:09.670Z,18.47
2023-05-04T14:45:36.464Z,19.37
2023-05-04T14:48:03.701Z,19.44
2023-05-04T14:50:30.737Z,17.72
2023-05-04T14:52:57.400Z,17.18
2023-05-04T14:55:24.810Z,16.52
2023-05-04T14:57:51.601Z,16.08
2023-05-04T15:00:19.977Z,16.57
2023-05-04T15:02:46.798Z,17.55
2023-05-04T15:05:14.507Z,16.99
2023-05-04T15:07:41.286Z,16.58
2023-05-04T15:10:09.547Z,15.13
2023-05-04T15:12:37.882Z,16.42
2023-05-04T15:15:05.295Z,18.02
2023-05-04T15:17:32.167Z,17.46
2023-05-04T15:20:01.834Z,15.68
2023-05-04T15:22:28.805Z,15.75
2023-05-04T15:24:56.675Z,15.88
2023-05-04T15:27:23.464Z,16.12
2023-05-04T15:29:50.688Z,17.55
2023-05-04T15:32:17.694Z,17.54
2023-05-04T15:34:50.813Z,18.60
2023-05-04T15:37:27.847Z,17.86
2023-05-04T15:39:55.945Z,16.89
2023-05-04T15:42:22.677Z,16.88
2023-05-04T15:44:49.857Z,17.82
2023-05-04T15:47:16.794Z,15.55
2023-05-04T15:49:43.899Z,17.09
2023-05-04T15:52:11.038Z,17.02
2023-05-04T15:54:37.916Z,18.21
2023-05-04T15:57:04.830Z,18.07
2023-05-04T15:59:31.746Z,17.29
2023-05-04T16:01:58.973Z,16.45
2023-05-04T16:04:26.242Z,16.59
2023-05-04T16:06:53.125Z,17.20
2023-05-04T16:09:20.821Z,16.06
2023-05-04T16:11:47.727Z,15.85
2023-05-04T16:14:15.608Z,15.68
2023-05-04T16:16:42.532Z,15.30
2023-05-04T16:19:11.582Z,15.20
2023-05-04T16:21:38.897Z,16.13
2023-05-04T16:24:07.773Z,17.34
2023-05-04T16:26:35.097Z,15.13
2023-05-04T16:29:01.797Z,15.86
2023-05-04T16:31:29.264Z,16.19
2023-05-04T16:33:56.722Z,15.70
2023-05-04T16:36:23.630Z,15.68
2023-05-04T16:38:50.408Z,15.68
2023-05-04T16:41:18.854Z,15.13
2023-05-04T16:43:45.941Z,14.66
2023-05-04T16:46:12.751Z,14.86
2023-05-04T16:48:40.230Z,14.87
2023-05-04T16:51:08.300Z,15.37
2023-05-04T16:53:36.189Z,14.40
2023-05-04T16:56:03.517Z,13.45
2023-05-04T16:58:31.082Z,14.59
2023-05-04T17:00:58.513Z,13.46
2023-05-04T17:03:25.536Z,12.77
2023-05-04T17:05:52.367Z,12.42
2023-05-04T17:08:19.123Z,13.01
2023-05-04T17:10:46.028Z,12.64
2023-05-04T17:13:12.770Z,13.23
2023-05-04T17:15:39.554Z,13.48
2023-05-04T17:18:06.512Z,14.61
2023-05-04T17:20:33.252Z,13.34
2023-05-04T17:23:00.117Z,14.66
2023-05-04T17:25:27.381Z,13.76
2023-05-04T17:27:54.839Z,14.18
2023-05-04T17:30:22.218Z,12.05
2023-05-04T17:32:49.363Z,13.28
2023-05-04T17:35:25.469Z,14.35
2023-05-04T17:37:58.877Z,13.86
2023-05-04T17:40:28.152Z,14.44
2023-05-04T17:42:55.713Z,13.28
2023-05-04T17:45:23.047Z,14.24
2023-05-04T17:47:52.793Z,13.13
2023-05-04T17:50:20.410Z,12.43
2023-05-04T17:52:57.995Z,12.54
2023-05-04T17:55:25.033Z,12.20
2023-05-04T17:57:53.040Z,12.35
2023-05-04T18:00:20.976Z,13.06
2023-05-04T18:02:47.918Z,12.58
2023-05-04T18:05:15.184Z,12.00
2023-05-04T18:07:42.025Z,12.34
2023-05-04T18:10:09.300Z,11.09
2023-05-04T18:12:38.165Z,12.02
2023-05-04T18:15:08.424Z,11.40
2023-05-04T18:17:38.174Z,12.73
2023-05-04T18:20:08.277Z,10.51
2023-05-04T18:22:36.360Z,11.57
2023-05-04T18:25:03.148Z,12.09
2023-05-04T18:27:33.979Z,12.42
2023-05-04T18:30:05.152Z,12.83
2023-05-04T18:32:32.138Z,10.64
2023-05-04T18:34:58.921Z,12.38
2023-05-04T18:37:25.936Z,10.76
2023-05-04T18:39:53.003Z,10.54
2023-05-04T18:42:19.841Z,10.47
2023-05-04T18:44:47.202Z,10.92
2023-05-04T18:47:14.213Z,10.41
2023-05-04T18:49:41.291Z,10.03
2023-05-04T18:52:08.170Z,9.48
2023-05-04T18:54:35.036Z,9.63
2023-05-04T18:57:03.408Z,9.56
2023-05-04T18:59:34.093Z,9.56
2023-05-04T19:02:02.075Z,10.41
2023-05-04T19:04:29.010Z,9.70
2023-05-04T19:06:57.655Z,11.28
2023-05-04T19:09:24.494Z,11.02
2023-05-04T19:11:52.285Z,10.18
2023-05-04T19:14:19.407Z,10.25
2023-05-04T19:16:46.108Z,10.50
2023-05-04T19:19:13.339Z,9.51
2023-05-04T19:21:40.454Z,10.40
2023-05-04T19:24:08.089Z,11.29
2023-05-04T19:26:35.359Z,10.48
2023-05-04T19:29:02.763Z,8.96
2023-05-04T19:31:29.548Z,9.22
2023-05-04T19:33:56.281Z,8.53
2023-05-04T19:36:27.501Z,8.60
2023-05-04T19:38:54.389Z,9.27
2023-05-04T19:41:22.233Z,9.44
2023-05-04T19:43:49.238Z,9.25
2023-05-04T19:46:16.715Z,8.80
2023-05-04T19:48:43.825Z,8.23
2023-05-04T19:51:10.554Z,9.22
2023-05-04T19:53:37.292Z,8.80
2023-05-04T19:56:04.088Z,9.81
2023-05-04T19:58:31.713Z,8.99
2023-05-04T20:00:58.874Z,8.22
2023-05-04T20:03:25.727Z,8.16
2023-05-04T20:05:52.536Z,8.00
2023-05-04T20:08:19.478Z,7.83
2023-05-04T20:10:47.224Z,8.34
2023-05-04T20:13:14.793Z,8.36
2023-05-04T20:15:43.044Z,8.09
2023-05-04T20:18:09.956Z,8.47
2023-05-04T20:20:37.600Z,8.83
2023-05-04T20:23:04.487Z,8.54
2023-05-04T20:25:31.865Z,7.55
2023-05-04T20:27:58.924Z,8.13
2023-05-04T20:30:28.424Z,8.28
2023-05-04T20:32:55.901Z,8.47
2023-05-04T20:35:22.945Z,8.55
2023-05-04T20:37:49.681Z,8.47
2023-05-04T20:40:17.048Z,7.98
2023-05-04T20:42:44.199Z,7.52
2023-05-04T20:45:11.391Z,7.64
2023-05-04T20:47:38.569Z,7.57
2023-05-04T20:50:08.167Z,6.77
2023-05-04T20:52:35.073Z,6.74
2023-05-04T20:55:02.273Z,6.91
2023-05-04T20:57:29.235Z,6.99
2023-05-04T20:59:56.537Z,7.68
2023-05-04T21:02:23.415Z,8.54
2023-05-04T21:04:50.551Z,8.09
2023-05-04T21:07:18.607Z,7.32
2023-05-04T21:09:45.438Z,7.53
2023-05-04T21:12:12.132Z,7.25
2023-05-04T21:14:39.166Z,7.54
2023-05-04T21:17:07.084Z,6.30
2023-05-04T21:19:33.778Z,6.84
2023-05-04T21:22:00.510Z,8.20
2023-05-04T21:24:27.199Z,7.38
2023-05-04T21:26:54.367Z,7.26
2023-05-04T21:29:21.049Z,6.45
2023-05-04T21:31:49.003Z,7.36
2023-05-04T21:34:15.981Z,7.05
2023-05-04T21:36:44.856Z,7.24
2023-05-04T21:39:12.044Z,8.12
2023-05-04T21:41:42.153Z,5.80
2023-05-04T21:44:11.398Z,6.09
2023-05-04T21:46:41.615Z,7.36
2023-05-04T21:49:08.820Z,7.54
2023-05-04T21:51:35.635Z,7.23
2023-05-04T21:54:02.547Z,7.50
2023-05-04T21:56:29.327Z,7.67
2023-05-04T21:58:55.995Z,7.48
2023-05-04T22:01:23.319Z,7.69
2023-05-04T22:03:50.602Z,6.08
2023-05-04T22:06:17.665Z,5.85
2023-05-04T22:08:45.162Z,4.68
2023-05-04T22:11:11.982Z,3.97
2023-05-04T22:13:38.740Z,6.01
2023-05-04T22:16:08.768Z,6.64
2023-05-04T22:18:35.614Z,4.57
2023-05-04T22:21:02.793Z,6.56
2023-05-04T22:23:29.588Z,6.86
2023-05-04T22:25:56.487Z,5.94
2023-05-04T22:28:23.610Z,6.25
2023-05-04T22:30:50.616Z,6.42
2023-05-04T22:33:17.415Z,5.30
2023-05-04T22:35:44.722Z,5.58
2023-05-04T22:38:12.017Z,6.06
2023-05-04T22:40:40.322Z,4.84
2023-05-04T22:43:07.612Z,5.85
2023-05-04T22:45:38.454Z,4.80
2023-05-04T22:48:05.266Z,6.04
2023-05-04T22:50:32.107Z,5.92
2023-05-04T22:52:58.953Z,5.26
2023-05-04T22:55:26.064Z,4.42
2023-05-04T22:57:52.788Z,4.75
2023-05-04T23:00:20.893Z,4.14
2023-05-04T23:02:47.804Z,2.99
2023-05-04T23:05:15.033Z,3.63
2023-05-04T23:07:41.811Z,4.01
2023-05-04T23:10:09.752Z,4.98
2023-05-04T23:12:36.622Z,5.82
2023-05-04T23:15:03.825Z,4.41
2023-05-04T23:17:31.028Z,5.40
2023-05-04T23:19:57.782Z,4.40
2023-05-04T23:22:24.549Z,4.57
2023-05-04T23:24:51.310Z,4.81
2023-05-04T23:27:18.658Z,5.09
2023-05-04T23:29:45.406Z,5.74
2023-05-04T23:32:12.100Z,5.87
2023-05-04T23:34:39.170Z,5.37
2023-05-04T23:37:06.003Z,6.06
2023-05-04T23:39:32.696Z,5.65
2023-05-04T23:41:59.508Z,5.56
2023-05-04T23:44:26.616Z,4.43
2023-05-04T23:46:53.374Z,4.76
2023-05-04T23:49:20.073Z,4.67
2023-05-04T23:51:46.861Z,4.28
2023-05-04T23:54:15.162Z,4.87
2023-05-04T23:56:41.848Z,5.25
2023-05-04T23:59:08.587Z,4.81
